createdAt,value
2019-01-25T00:01:28.758Z,30.20
2019-01-25T00:03:59.047Z,30.52
2019-01-25T00:06:29.143Z,29.77
2019-01-25T00:08:59.249Z,30.65
2019-01-25T00:11:29.344Z,31.60
2019-01-25T00:13:59.466Z,31.75
2019-01-25T00:16:29.562Z,32.15
2019-01-25T00:18:59.673Z,33.15
2019-01-25T00:21:29.778Z,34.40
2019-01-25T00:23:59.960Z,33.73
2019-01-25T00:26:30.062Z,34.05
2019-01-25T00:29:00.179Z,32.45
2019-01-25T00:31:30.279Z,34.08
2019-01-25T00:34:00.399Z,32.03
2019-01-25T00:36:30.503Z,34.75
2019-01-25T00:39:00.616Z,34.08
2019-01-25T00:41:30.710Z,34.05
2019-01-25T00:44:00.834Z,35.52
2019-01-25T00:46:30.930Z,34.60
2019-01-25T00:49:01.058Z,33.78
2019-01-25T00:51:31.172Z,34.78
2019-01-25T00:54:01.277Z,35.60
2019-01-25T00:56:31.392Z,34.43
2019-01-25T00:59:01.482Z,35.92
2019-01-25T01:01:31.599Z,35.80
2019-01-25T01:04:01.703Z,34.35
2019-01-25T01:06:31.822Z,37.15
2019-01-25T01:09:01.915Z,36.75
2019-01-25T01:11:32.997Z,36.15
2019-01-25T01:14:03.095Z,36.42
2019-01-25T01:16:33.205Z,38.70
2019-01-25T01:19:03.296Z,36.28
2019-01-25T01:21:33.415Z,37.40
2019-01-25T01:24:03.504Z,35.40
2019-01-25T01:26:33.613Z,37.42
2019-01-25T01:29:03.796Z,35.43
2019-01-25T01:31:33.909Z,38.55
2019-01-25T01:34:23.430Z,40.67
2019-01-25T01:36:53.542Z,34.90
2019-01-25T01:39:23.628Z,38.55
2019-01-25T01:41:53.741Z,37.48
2019-01-25T01:44:23.843Z,37.45
2019-01-25T01:46:53.951Z,34.78
2019-01-25T01:49:24.096Z,34.80
2019-01-25T01:51:54.219Z,35.48
2019-01-25T01:54:24.315Z,36.17
2019-01-25T01:56:55.396Z,35.23
2019-01-25T01:59:25.496Z,34.98
2019-01-25T02:01:55.610Z,35.08
2019-01-25T02:04:25.698Z,35.85
2019-01-25T02:06:55.872Z,36.35
2019-01-25T02:09:25.965Z,35.60
2019-01-25T02:11:56.084Z,35.73
2019-01-25T02:14:26.176Z,35.30
2019-01-25T02:16:57.365Z,36.10
2019-01-25T02:19:27.469Z,35.08
2019-01-25T02:21:57.579Z,36.60
2019-01-25T02:24:27.673Z,36.65
2019-01-25T02:26:57.784Z,37.03
2019-01-25T02:29:27.948Z,36.98
2019-01-25T02:31:58.075Z,36.88
2019-01-25T02:34:28.168Z,35.73
2019-01-25T02:36:58.273Z,36.05
2019-01-25T02:39:28.368Z,36.03
2019-01-25T02:41:58.864Z,35.48
2019-01-25T02:44:28.964Z,35.03
2019-01-25T02:46:59.075Z,37.75
2019-01-25T02:49:29.166Z,36.42
2019-01-25T02:51:59.282Z,35.05
2019-01-25T02:54:29.378Z,36.10
2019-01-25T02:56:59.492Z,37.03
2019-01-25T02:59:29.584Z,36.90
2019-01-25T03:01:59.697Z,36.88
2019-01-25T03:04:29.801Z,35.65
2019-01-25T03:06:59.927Z,35.17
2019-01-25T03:09:30.018Z,35.52
2019-01-25T03:12:00.129Z,35.78
2019-01-25T03:14:30.221Z,36.98
2019-01-25T03:17:00.332Z,36.00
2019-01-25T03:19:30.449Z,36.90
2019-01-25T03:22:00.538Z,35.73
2019-01-25T03:24:30.658Z,36.73
2019-01-25T03:27:00.768Z,37.30
2019-01-25T03:29:30.860Z,35.63
2019-01-25T03:32:00.998Z,36.50
2019-01-25T03:34:31.083Z,36.50
2019-01-25T03:37:01.259Z,37.25
2019-01-25T03:39:31.360Z,36.40
2019-01-25T03:42:01.518Z,36.33
2019-01-25T03:44:31.565Z,35.03
2019-01-25T03:47:01.672Z,35.40
2019-01-25T03:49:31.764Z,34.88
2019-01-25T03:52:01.881Z,35.03
2019-01-25T03:54:31.979Z,35.80
2019-01-25T03:57:02.093Z,36.98
2019-01-25T03:59:32.187Z,35.90
2019-01-25T04:02:02.301Z,35.63
2019-01-25T04:04:32.393Z,37.23
2019-01-25T04:07:02.511Z,35.75
2019-01-25T04:09:32.605Z,36.63
2019-01-25T04:12:02.720Z,35.55
2019-01-25T04:14:32.825Z,36.93
2019-01-25T04:17:02.940Z,35.28
2019-01-25T04:19:33.024Z,37.10
2019-01-25T04:22:03.138Z,35.08
2019-01-25T04:24:33.232Z,34.92
2019-01-25T04:27:03.341Z,35.60
2019-01-25T04:29:33.431Z,36.30
2019-01-25T04:32:03.551Z,36.93
2019-01-25T04:34:33.659Z,36.58
2019-01-25T04:37:03.763Z,36.23
2019-01-25T04:39:33.934Z,37.70
2019-01-25T04:42:04.050Z,35.08
2019-01-25T04:44:34.141Z,34.75
2019-01-25T04:47:04.259Z,34.78
2019-01-25T04:49:36.250Z,35.40
2019-01-25T04:52:12.352Z,36.60
2019-01-25T04:54:42.443Z,36.63
2019-01-25T04:57:12.562Z,36.65
2019-01-25T04:59:42.657Z,36.65
2019-01-25T05:02:12.768Z,37.65
2019-01-25T05:04:42.862Z,37.05
2019-01-25T05:07:12.975Z,37.95
2019-01-25T05:09:43.076Z,37.50
2019-01-25T05:12:13.193Z,37.03
2019-01-25T05:14:43.704Z,37.03
2019-01-25T05:17:13.813Z,37.80
2019-01-25T05:19:43.916Z,39.33
2019-01-25T05:22:14.037Z,38.63
2019-01-25T05:24:44.134Z,37.60
2019-01-25T05:27:14.245Z,39.15
2019-01-25T05:29:54.563Z,39.55
2019-01-25T05:32:24.774Z,37.45
2019-01-25T05:34:54.874Z,39.98
2019-01-25T05:37:24.985Z,39.05
2019-01-25T05:39:55.074Z,38.53
2019-01-25T05:42:25.211Z,38.85
2019-01-25T05:44:55.313Z,40.00
2019-01-25T05:47:25.422Z,38.95
2019-01-25T05:49:55.539Z,40.90
2019-01-25T05:52:25.690Z,37.88
2019-01-25T05:54:55.803Z,39.50
2019-01-25T05:57:25.893Z,39.03
2019-01-25T05:59:56.011Z,39.42
2019-01-25T06:02:26.116Z,39.13
2019-01-25T06:04:56.227Z,40.23
2019-01-25T06:07:27.995Z,37.98
2019-01-25T06:09:58.112Z,39.33
2019-01-25T06:12:28.199Z,41.02
2019-01-25T06:14:58.319Z,39.92
2019-01-25T06:17:28.415Z,40.17
2019-01-25T06:19:58.533Z,39.92
2019-01-25T06:22:28.636Z,38.92
2019-01-25T06:24:58.752Z,38.92
2019-01-25T06:27:28.844Z,39.13
2019-01-25T06:29:58.968Z,39.00
2019-01-25T06:32:29.063Z,38.08
2019-01-25T06:34:59.281Z,40.50
2019-01-25T06:37:29.378Z,41.53
2019-01-25T06:39:59.496Z,40.70
2019-01-25T06:42:29.585Z,41.05
2019-01-25T06:44:59.699Z,40.00
2019-01-25T06:47:29.797Z,40.95
2019-01-25T06:49:59.900Z,41.63
2019-01-25T06:52:29.991Z,39.63
2019-01-25T06:55:00.223Z,39.88
2019-01-25T06:57:31.917Z,39.88
2019-01-25T07:00:02.044Z,41.55
2019-01-25T07:02:32.130Z,41.63
2019-01-25T07:05:02.251Z,40.80
2019-01-25T07:07:33.628Z,41.30
2019-01-25T07:10:04.815Z,42.67
2019-01-25T07:12:34.905Z,43.00
2019-01-25T07:15:08.420Z,41.28
2019-01-25T07:17:38.516Z,41.23
2019-01-25T07:20:14.599Z,41.40
2019-01-25T07:22:44.701Z,41.37
2019-01-25T07:25:16.149Z,40.70
2019-01-25T07:27:46.252Z,39.48
2019-01-25T07:30:17.127Z,41.00
2019-01-25T07:32:47.190Z,38.65
2019-01-25T07:35:17.308Z,39.03
2019-01-25T07:37:47.403Z,39.85
2019-01-25T07:40:17.520Z,36.20
2019-01-25T07:42:47.901Z,36.88
2019-01-25T07:45:18.023Z,38.08
2019-01-25T07:47:48.177Z,37.50
2019-01-25T07:50:18.304Z,36.95
2019-01-25T07:52:48.403Z,36.15
2019-01-25T07:55:18.578Z,36.55
2019-01-25T07:57:48.652Z,38.60
2019-01-25T08:00:18.762Z,37.67
2019-01-25T08:02:48.857Z,36.85
2019-01-25T08:05:18.994Z,39.23
2019-01-25T08:07:49.078Z,37.70
2019-01-25T08:10:24.127Z,38.20
2019-01-25T08:12:54.310Z,37.95
2019-01-25T08:15:26.733Z,36.85
2019-01-25T08:17:57.824Z,37.13
2019-01-25T08:20:29.059Z,39.05
2019-01-25T08:22:59.177Z,35.92
2019-01-25T08:25:29.296Z,33.28
2019-01-25T08:27:59.369Z,36.25
2019-01-25T08:30:29.563Z,36.73
2019-01-25T08:32:59.854Z,35.03
2019-01-25T08:35:30.115Z,37.55
2019-01-25T08:38:00.148Z,35.10
2019-01-25T08:40:30.261Z,38.65
2019-01-25T08:43:00.435Z,37.48
2019-01-25T08:45:30.541Z,37.80
2019-01-25T08:48:00.662Z,36.20
2019-01-25T08:50:30.755Z,36.58
2019-01-25T08:53:00.853Z,36.50
2019-01-25T08:55:32.062Z,35.80
2019-01-25T08:58:02.161Z,37.80
2019-01-25T09:00:44.894Z,36.03
2019-01-25T09:03:14.987Z,36.33
2019-01-25T09:05:45.096Z,36.73
2019-01-25T09:08:15.189Z,36.70
2019-01-25T09:10:45.300Z,33.50
2019-01-25T09:13:15.393Z,33.85
2019-01-25T09:15:45.504Z,33.55
2019-01-25T09:18:15.588Z,35.38
2019-01-25T09:20:45.699Z,32.65
2019-01-25T09:23:15.793Z,34.03
2019-01-25T09:26:01.163Z,33.90
2019-01-25T09:28:30.536Z,33.70
2019-01-25T09:31:00.644Z,32.88
2019-01-25T09:33:30.736Z,34.27
2019-01-25T09:36:00.848Z,33.23
2019-01-25T09:38:30.932Z,32.25
2019-01-25T09:41:01.051Z,32.67
2019-01-25T09:43:31.145Z,31.25
2019-01-25T09:46:01.259Z,29.63
2019-01-25T09:48:31.357Z,30.35
2019-01-25T09:51:01.464Z,31.12
2019-01-25T09:53:31.556Z,32.23
2019-01-25T09:56:01.679Z,31.12
2019-01-25T09:58:31.767Z,31.50
2019-01-25T10:01:05.487Z,34.43
2019-01-25T10:03:35.576Z,31.37
2019-01-25T10:06:05.694Z,32.13
2019-01-25T10:08:35.780Z,32.83
2019-01-25T10:11:05.882Z,31.80
2019-01-25T10:13:35.979Z,32.40
2019-01-25T10:16:07.059Z,31.57
2019-01-25T10:18:37.150Z,33.50
2019-01-25T10:21:07.262Z,32.95
2019-01-25T10:23:39.219Z,31.93
2019-01-25T10:26:09.149Z,33.15
2019-01-25T10:28:39.267Z,33.65
2019-01-25T10:31:09.353Z,31.52
2019-01-25T10:33:39.454Z,31.50
2019-01-25T10:36:09.542Z,30.37
2019-01-25T10:38:39.646Z,29.70
2019-01-25T10:41:09.733Z,28.25
2019-01-25T10:43:39.903Z,30.55
2019-01-25T10:46:09.927Z,29.77
2019-01-25T10:48:40.056Z,30.20
2019-01-25T10:51:10.126Z,31.65
2019-01-25T10:53:41.187Z,29.82
2019-01-25T10:56:11.272Z,29.65
2019-01-25T10:58:41.374Z,31.50
2019-01-25T11:01:11.468Z,30.62
2019-01-25T11:03:41.571Z,32.85
2019-01-25T11:06:11.662Z,30.85
2019-01-25T11:08:41.773Z,31.55
2019-01-25T11:11:11.868Z,31.87
2019-01-25T11:13:41.983Z,29.48
2019-01-25T11:16:12.125Z,34.63
2019-01-25T11:18:42.171Z,34.40
2019-01-25T11:21:12.256Z,33.42
2019-01-25T11:23:42.371Z,32.90
2019-01-25T11:26:12.461Z,32.58
2019-01-25T11:28:42.574Z,32.10
2019-01-25T11:31:12.658Z,33.92
2019-01-25T11:33:42.768Z,31.73
2019-01-25T11:36:12.865Z,32.73
2019-01-25T11:38:42.972Z,31.68
2019-01-25T11:41:13.069Z,32.30
2019-01-25T11:43:43.193Z,30.97
2019-01-25T11:46:13.293Z,32.23
2019-01-25T11:49:03.800Z,31.73
2019-01-25T11:51:33.890Z,33.23
2019-01-25T11:54:05.077Z,33.42
2019-01-25T11:56:35.174Z,32.30
2019-01-25T11:59:05.293Z,32.83
2019-01-25T12:01:35.378Z,32.53
2019-01-25T12:04:05.765Z,34.23
2019-01-25T12:06:35.864Z,33.98
2019-01-25T12:09:08.812Z,34.80
2019-01-25T12:11:38.904Z,32.88
2019-01-25T12:14:09.011Z,33.92
2019-01-25T12:16:39.136Z,34.35
2019-01-25T12:19:09.255Z,33.05
2019-01-25T12:21:39.338Z,34.20
2019-01-25T12:24:09.443Z,34.13
2019-01-25T12:26:39.539Z,32.53
2019-01-25T12:29:09.652Z,32.95
2019-01-25T12:31:39.736Z,32.85
2019-01-25T12:34:09.848Z,33.63
2019-01-25T12:36:39.944Z,32.45
2019-01-25T12:39:10.056Z,33.13
2019-01-25T12:41:40.147Z,33.05
2019-01-25T12:44:10.255Z,34.60
2019-01-25T12:46:40.335Z,32.90
2019-01-25T12:49:10.930Z,33.98
2019-01-25T12:51:41.193Z,33.42
2019-01-25T12:54:11.309Z,35.05
2019-01-25T12:56:41.410Z,34.85
2019-01-25T12:59:11.520Z,33.92
2019-01-25T13:01:41.619Z,34.45
2019-01-25T13:04:11.740Z,33.53
2019-01-25T13:06:41.903Z,34.23
2019-01-25T13:09:12.033Z,34.05
2019-01-25T13:11:42.133Z,33.70
2019-01-25T13:14:12.245Z,35.28
2019-01-25T13:16:42.348Z,33.90
2019-01-25T13:19:14.096Z,34.92
2019-01-25T13:21:44.197Z,35.85
2019-01-25T13:24:14.374Z,34.80
2019-01-25T13:26:44.488Z,35.65
2019-01-25T13:29:14.609Z,34.70
2019-01-25T13:31:44.723Z,35.98
2019-01-25T13:34:14.897Z,34.60
2019-01-25T13:36:45.080Z,34.70
2019-01-25T13:39:34.707Z,35.25
2019-01-25T13:42:04.778Z,35.43
2019-01-25T13:44:54.327Z,35.28
2019-01-25T13:47:24.411Z,35.05
2019-01-25T13:49:54.586Z,33.20
2019-01-25T13:52:24.678Z,33.28
2019-01-25T13:54:54.804Z,34.33
2019-01-25T13:57:24.896Z,33.15
2019-01-25T13:59:55.028Z,34.18
2019-01-25T14:02:25.123Z,34.38
2019-01-25T14:04:55.241Z,32.55
2019-01-25T14:07:25.405Z,32.30
2019-01-25T14:09:55.524Z,30.43
2019-01-25T14:12:25.631Z,31.62
2019-01-25T14:14:55.767Z,32.33
2019-01-25T14:17:26.025Z,30.08
2019-01-25T14:19:56.153Z,31.65
2019-01-25T14:22:26.255Z,31.73
2019-01-25T14:24:56.453Z,32.58
2019-01-25T14:27:26.532Z,33.90
2019-01-25T14:29:56.660Z,33.23
2019-01-25T14:32:26.762Z,33.35
2019-01-25T14:34:56.880Z,34.03
2019-01-25T14:37:26.987Z,34.60
2019-01-25T14:39:57.110Z,34.00
2019-01-25T14:42:27.196Z,35.35
2019-01-25T14:44:57.316Z,35.68
2019-01-25T14:47:27.408Z,33.00
2019-01-25T14:49:57.529Z,36.68
2019-01-25T14:52:27.617Z,34.30
2019-01-25T14:54:57.798Z,35.43
2019-01-25T14:57:27.898Z,35.28
2019-01-25T14:59:58.016Z,33.18
2019-01-25T15:02:28.108Z,33.20
2019-01-25T15:04:58.452Z,32.40
2019-01-25T15:07:28.589Z,32.83
2019-01-25T15:09:58.697Z,32.33
2019-01-25T15:12:28.845Z,32.80
2019-01-25T15:14:59.371Z,33.05
2019-01-25T15:17:29.603Z,33.13
2019-01-25T15:19:59.724Z,34.63
2019-01-25T15:22:31.483Z,30.12
2019-01-25T15:25:01.781Z,33.08
2019-01-25T15:27:31.922Z,31.65
2019-01-25T15:30:02.248Z,32.88
2019-01-25T15:32:33.408Z,33.28
2019-01-25T15:35:04.576Z,32.93
2019-01-25T15:37:34.675Z,33.02
2019-01-25T15:40:09.375Z,32.42
2019-01-25T15:42:39.809Z,33.08
2019-01-25T15:45:14.267Z,31.75
2019-01-25T15:47:44.410Z,33.95
2019-01-25T15:50:28.027Z,33.67
2019-01-25T15:52:59.083Z,33.00
2019-01-25T15:55:29.204Z,31.87
2019-01-25T15:57:59.328Z,32.28
2019-01-25T16:00:30.066Z,32.58
2019-01-25T16:03:00.160Z,32.93
2019-01-25T16:05:30.551Z,32.53
2019-01-25T16:08:00.707Z,32.73
2019-01-25T16:10:30.833Z,32.03
2019-01-25T16:13:00.969Z,32.98
2019-01-25T16:15:31.144Z,31.75
2019-01-25T16:18:01.301Z,32.63
2019-01-25T16:20:31.466Z,32.67
2019-01-25T16:23:01.555Z,31.80
2019-01-25T16:25:33.012Z,32.90
2019-01-25T16:28:03.110Z,32.83
2019-01-25T16:30:36.039Z,34.58
2019-01-25T16:33:06.207Z,36.98
2019-01-25T16:35:36.345Z,33.23
2019-01-25T16:38:06.554Z,35.38
2019-01-25T16:40:36.668Z,34.85
2019-01-25T16:43:06.755Z,36.95
2019-01-25T16:45:41.630Z,35.90
2019-01-25T16:48:12.126Z,34.85
2019-01-25T16:50:42.263Z,35.33
2019-01-25T16:53:12.350Z,35.80
2019-01-25T16:55:42.473Z,38.92
2019-01-25T16:58:12.775Z,35.60
2019-01-25T17:00:44.489Z,37.17
2019-01-25T17:03:14.840Z,37.08
2019-01-25T17:05:44.975Z,38.48
2019-01-25T17:08:15.067Z,37.53
2019-01-25T17:10:45.192Z,39.67
2019-01-25T17:13:15.275Z,40.48
2019-01-25T17:15:45.399Z,38.30
2019-01-25T17:18:16.467Z,38.20
2019-01-25T17:20:46.585Z,37.83
2019-01-25T17:23:16.677Z,41.48
2019-01-25T17:25:46.804Z,41.08
2019-01-25T17:28:16.900Z,40.48
2019-01-25T17:30:47.026Z,42.43
2019-01-25T17:33:17.134Z,43.20
2019-01-25T17:35:47.246Z,42.30
2019-01-25T17:38:17.375Z,42.43
2019-01-25T17:40:47.501Z,42.13
2019-01-25T17:43:17.597Z,40.55
2019-01-25T17:45:47.717Z,38.88
2019-01-25T17:48:17.892Z,41.02
2019-01-25T17:50:48.025Z,37.60
2019-01-25T17:53:18.118Z,43.35
2019-01-25T17:55:48.237Z,42.88
2019-01-25T17:58:18.341Z,46.33
2019-01-25T18:00:50.116Z,46.68
2019-01-25T18:03:20.211Z,43.48
2019-01-25T18:05:52.678Z,46.65
2019-01-25T18:08:22.703Z,44.85
2019-01-25T18:10:52.825Z,43.28
2019-01-25T18:13:22.922Z,42.60
2019-01-25T18:15:54.674Z,41.33
2019-01-25T18:18:24.765Z,44.10
2019-01-25T18:20:54.890Z,45.08
2019-01-25T18:23:25.666Z,40.98
2019-01-25T18:25:57.101Z,49.35
2019-01-25T18:28:37.500Z,48.70
2019-01-25T18:31:21.226Z,42.55
2019-01-25T18:33:51.292Z,40.45
2019-01-25T18:36:21.407Z,44.35
2019-01-25T18:38:51.497Z,40.95
2019-01-25T18:41:21.617Z,39.03
2019-01-25T18:43:51.719Z,46.88
2019-01-25T18:46:21.844Z,44.42
2019-01-25T18:48:51.948Z,42.83
2019-01-25T18:51:22.072Z,42.00
2019-01-25T18:53:52.173Z,46.05
2019-01-25T18:56:22.299Z,44.25
2019-01-25T18:58:52.528Z,43.00
2019-01-25T19:01:22.666Z,44.95
2019-01-25T19:03:52.755Z,40.48
2019-01-25T19:06:22.871Z,39.53
2019-01-25T19:08:52.972Z,37.15
2019-01-25T19:11:23.093Z,36.65
2019-01-25T19:13:54.050Z,35.13
2019-01-25T19:16:24.167Z,35.33
2019-01-25T19:18:54.267Z,37.33
2019-01-25T19:21:24.423Z,36.38
2019-01-25T19:23:54.512Z,37.63
2019-01-25T19:26:24.645Z,35.13
2019-01-25T19:28:55.829Z,34.00
2019-01-25T19:31:25.927Z,32.15
2019-01-25T19:33:56.039Z,32.13
2019-01-25T19:36:26.132Z,29.50
2019-01-25T19:38:56.260Z,27.37
2019-01-25T19:41:26.348Z,30.75
2019-01-25T19:43:56.464Z,27.82
2019-01-25T19:46:26.554Z,26.87
2019-01-25T19:48:56.672Z,28.12
2019-01-25T19:51:26.765Z,24.95
2019-01-25T19:53:56.885Z,25.05
2019-01-25T19:56:26.976Z,26.60
2019-01-25T19:58:57.176Z,31.50
2019-01-25T20:01:27.275Z,25.30
2019-01-25T20:03:57.406Z,25.90
2019-01-25T20:06:27.501Z,24.52
2019-01-25T20:08:57.615Z,24.87
2019-01-25T20:11:27.703Z,25.08
2019-01-25T20:13:57.832Z,25.37
2019-01-25T20:16:27.927Z,24.87
2019-01-25T20:18:58.043Z,25.62
2019-01-25T20:21:28.133Z,25.95
2019-01-25T20:23:58.247Z,25.70
2019-01-25T20:26:28.356Z,25.17
2019-01-25T20:28:58.471Z,24.27
2019-01-25T20:31:28.591Z,24.70
2019-01-25T20:33:58.710Z,25.90
2019-01-25T20:36:28.809Z,23.10
2019-01-25T20:38:58.935Z,23.80
2019-01-25T20:41:29.028Z,24.07
2019-01-25T20:43:59.144Z,23.98
2019-01-25T20:46:29.232Z,25.82
2019-01-25T20:48:59.345Z,24.35
2019-01-25T20:51:29.544Z,24.35
2019-01-25T20:53:59.813Z,24.30
2019-01-25T20:56:29.932Z,24.02
2019-01-25T20:59:00.458Z,23.85
2019-01-25T21:01:30.555Z,23.27
2019-01-25T21:04:12.927Z,25.15
2019-01-25T21:06:43.084Z,23.92
2019-01-25T21:09:13.351Z,24.95
2019-01-25T21:11:43.445Z,24.65
2019-01-25T21:14:13.975Z,24.30
2019-01-25T21:16:44.142Z,25.55
2019-01-25T21:19:14.268Z,25.62
2019-01-25T21:21:44.365Z,23.20
2019-01-25T21:24:14.495Z,22.98
2019-01-25T21:26:44.589Z,24.87
2019-01-25T21:29:14.711Z,23.85
2019-01-25T21:31:44.808Z,24.52
2019-01-25T21:34:14.923Z,24.05
2019-01-25T21:36:45.016Z,25.37
2019-01-25T21:39:15.137Z,25.15
2019-01-25T21:41:45.233Z,26.00
2019-01-25T21:44:15.352Z,25.40
2019-01-25T21:46:45.444Z,24.43
2019-01-25T21:49:15.565Z,25.02
2019-01-25T21:51:45.664Z,23.27
2019-01-25T21:54:15.797Z,25.70
2019-01-25T21:56:45.901Z,25.00
2019-01-25T21:59:16.028Z,24.85
2019-01-25T22:01:46.119Z,23.30
2019-01-25T22:04:16.239Z,23.75
2019-01-25T22:06:46.333Z,26.40
2019-01-25T22:09:16.459Z,24.75
2019-01-25T22:11:46.551Z,23.75
2019-01-25T22:14:16.681Z,24.65
2019-01-25T22:16:46.771Z,25.52
2019-01-25T22:19:16.913Z,24.18
2019-01-25T22:21:47.051Z,24.07
2019-01-25T22:24:17.171Z,25.40
2019-01-25T22:26:48.238Z,24.50
2019-01-25T22:29:18.356Z,23.10
2019-01-25T22:31:48.448Z,25.10
2019-01-25T22:34:18.577Z,24.60
2019-01-25T22:36:48.693Z,25.43
2019-01-25T22:39:18.793Z,24.45
2019-01-25T22:41:48.892Z,26.87
2019-01-25T22:44:19.023Z,25.65
2019-01-25T22:46:49.115Z,25.68
2019-01-25T22:49:19.225Z,25.82
2019-01-25T22:51:49.321Z,23.20
2019-01-25T22:54:19.438Z,24.12
2019-01-25T22:56:49.534Z,23.42
2019-01-25T22:59:19.648Z,23.10
2019-01-25T23:01:49.743Z,25.68
2019-01-25T23:04:30.227Z,25.05
2019-01-25T23:07:01.801Z,25.08
2019-01-25T23:09:31.893Z,23.87
2019-01-25T23:12:03.497Z,25.20
2019-01-25T23:14:33.616Z,24.95
2019-01-25T23:17:03.857Z,24.85
2019-01-25T23:19:33.964Z,25.32
2019-01-25T23:22:07.061Z,24.25
2019-01-25T23:24:37.151Z,24.05
2019-01-25T23:27:07.240Z,26.20
2019-01-25T23:29:37.360Z,26.75
2019-01-25T23:32:07.511Z,26.25
2019-01-25T23:34:37.610Z,28.23
2019-01-25T23:37:07.765Z,27.40
2019-01-25T23:39:37.887Z,26.73
2019-01-25T23:42:08.024Z,27.52
2019-01-25T23:44:38.163Z,28.57
2019-01-25T23:47:08.310Z,29.23
2019-01-25T23:49:38.439Z,29.00
2019-01-25T23:52:08.770Z,29.67
2019-01-25T23:54:38.871Z,30.00
2019-01-25T23:57:10.000Z,29.45
2019-01-25T23:59:40.112Z,30.95
